Chocowinity, North Carolina
Current Conditions -  °F | °C
As of 9:55 AM on Saturday 20 Dec 2014 (Local Time) from KOCW Reporting Station
Clear Clear  
Wind Chill: 34°   Ceiling: Unl
Heat Index: 37°   Visibility: 10mi
Dew Point: 32°   Wind: 5mph
Humidity: 81%   Direction: 50°NE
Pressure: 30.3"   Gusts: NA
Location:  35.51°N, 77.1°W
Report Text: KOCW 201455Z AUTO 05004KT 10SM CLR 03/00 A3030 RMK AO2 T00300000
Loading
Personal Weather Stations






























Interactive Weather Map New forecast layout! Learn more

10-Day Weather Forecast

Advertisements
Track Severe Weather on mobile